Edward G. Pitka Sr Airport
PAGA : now visible

Airfield :











YOU CAN JOIN US ON...

 
LOGIN :

Register | Disclaimer

   EN    FR    IT 

 









Legend :    VFR   Marginal VFR   IFR   Intensive IFR   Very Intensive IFR
Visi :
Ceiling :
>= 8 km
>= 3000ft
5 to 8 km
1000 to 3000 ft
1500m to 5 km
500 to 1000 ft
800 to 1500m
200 to 500 ft
< 800m
< 200 ft
Symbols :   Thunderstorms  Fog  Heavy snow  Heavy precipitations  Wind > 20 kt






- Airport Elevation : 153 ft
- IATA code : GAL


PAGA - Edward G. Pitka Sr

CURRENT METAR :
  • 090107Z 25010KT 10SM FEW023 SCT031 OVC048 M08/M12 A3002 RMK AO2 FZRANO

EXPIRED METARs :
  • 090017Z 24009KT 8SM -SN FEW026 SCT034 OVC050 M08/M12 A3000 RMK AO2 P0000 FZRANO
  • 082356Z 23009KT 9SM -SN SCT022 BKN027 OVC035 M08/M12 A3000 RMK AO2 SLP162 P0000 60000 T10831117 11083 21117 53014 FZRANO
  • 082311Z 24013KT 8SM -SN FEW019 SCT028 BKN038 M09/M12 A2998 RMK AO2 P0000 FZRANO
  • 082256Z 24010KT 9SM -SN FEW017 BKN024 BKN029 M08/M12 A2998 RMK AO2 SLP156 P0000 T10831117 FZRANO

TAF PAGA
Valid from the 09 at 00:00 until the 10 at 00:00 UTC


082339Z 0900/0924 24010KT P6SM VCSH BKN030
FM090200 27008KT P6SM SCT025 BKN050
FM091700 17004KT P6SM BCFG BKN050



MET'MAP, your aeronautical weather chart ! - Copyright ORBIFLY December 2007 - Disclaimer

ORBIFLY MET'MAP TEAM :

Programming & Development : Alexandra Zaïnal
Concept & original design : Baudouin d'Aumeries
Assistance for programming : Marc-Olivier Méhu
Technical & hardware support : Manuel Goepfert

Contact : metmap@orbifly.com




SOURCES & CREDITS :

   NOAA       Earth
Advisory